createdAt,value
2022-08-23T00:02:40.449Z,14.724731
2022-08-23T00:06:05.673Z,14.654236
2022-08-23T00:09:30.895Z,14.644165
2022-08-23T00:12:56.148Z,14.613953
2022-08-23T00:16:21.409Z,14.624023
2022-08-23T00:19:46.715Z,14.573669
2022-08-23T00:23:11.978Z,14.553528
2022-08-23T00:26:37.210Z,14.472961
2022-08-23T00:30:02.470Z,14.352112
2022-08-23T00:33:27.693Z,14.281616
2022-08-23T00:36:52.950Z,14.241333
2022-08-23T00:40:18.254Z,14.211121
2022-08-23T00:43:43.408Z,14.170837
2022-08-23T00:47:08.644Z,14.140625
2022-08-23T00:50:33.865Z,14.090271
2022-08-23T00:53:59.097Z,14.060059
2022-08-23T00:57:24.346Z,13.999634
2022-08-23T01:00:49.568Z,13.959351
2022-08-23T01:04:14.838Z,13.868713
2022-08-23T01:07:40.067Z,13.848572
2022-08-23T01:11:05.599Z,13.788147
2022-08-23T01:14:30.510Z,13.808289
2022-08-23T01:17:55.736Z,13.747864
2022-08-23T01:21:20.980Z,13.707581
2022-08-23T01:24:59.873Z,13.687439
2022-08-23T01:28:11.498Z,13.657227
2022-08-23T01:31:36.728Z,13.596802
2022-08-23T01:35:01.972Z,13.586731
2022-08-23T01:38:27.800Z,13.536377
2022-08-23T01:41:52.458Z,13.536377
2022-08-23T01:45:17.661Z,13.586731
2022-08-23T01:48:42.894Z,13.727722
2022-08-23T01:52:08.144Z,13.888855
2022-08-23T01:55:33.384Z,14.090271
2022-08-23T01:58:58.615Z,14.180908
2022-08-23T02:02:23.888Z,14.221191
2022-08-23T02:05:49.224Z,14.170837
2022-08-23T02:09:16.039Z,14.090271
2022-08-23T02:12:39.627Z,14.120483
2022-08-23T02:16:04.871Z,14.221191
2022-08-23T02:19:30.130Z,14.251404
2022-08-23T02:22:55.415Z,14.251404
2022-08-23T02:26:20.616Z,14.281616
2022-08-23T02:29:45.877Z,14.251404
2022-08-23T02:33:11.087Z,14.241333
2022-08-23T02:36:54.429Z,14.20105
2022-08-23T02:40:19.921Z,14.170837
2022-08-23T02:43:45.315Z,14.070129
2022-08-23T02:47:10.771Z,13.989563
2022-08-23T02:50:36.221Z,13.878784
2022-08-23T02:54:01.657Z,13.818359
2022-08-23T02:57:27.120Z,13.707581
2022-08-23T03:00:52.595Z,13.637085
2022-08-23T03:04:18.038Z,13.546448
2022-08-23T03:07:43.478Z,13.486023
2022-08-23T03:11:09.786Z,13.506165
2022-08-23T03:14:34.344Z,13.516235
2022-08-23T03:17:59.897Z,13.44574
2022-08-23T03:21:25.257Z,13.385315
2022-08-23T03:24:50.678Z,13.385315
2022-08-23T03:28:16.089Z,13.475952
2022-08-23T03:31:41.425Z,13.44574
2022-08-23T03:35:10.868Z,13.435669
2022-08-23T03:38:31.803Z,13.405457
2022-08-23T03:41:57.019Z,13.284607
2022-08-23T03:45:22.250Z,13.234253
2022-08-23T03:48:47.470Z,13.113403
2022-08-23T03:52:12.701Z,13.052979
2022-08-23T03:55:38.471Z,13.042908
2022-08-23T03:59:03.166Z,13.032837
2022-08-23T04:02:28.631Z,13.012695
2022-08-23T04:05:53.843Z,13.012695
2022-08-23T04:09:19.059Z,13.002625
2022-08-23T04:12:44.260Z,13.042908
2022-08-23T04:16:09.409Z,13.103333
2022-08-23T04:19:34.602Z,13.224182
2022-08-23T04:22:59.812Z,13.415527
2022-08-23T04:26:28.412Z,13.455811
2022-08-23T04:29:50.224Z,13.385315
2022-08-23T04:33:17.985Z,13.294678
2022-08-23T04:36:40.592Z,13.204041
2022-08-23T04:40:05.816Z,13.143616
2022-08-23T04:43:30.961Z,13.153687
2022-08-23T04:46:56.151Z,13.19397
2022-08-23T04:50:21.332Z,13.234253
2022-08-23T04:53:46.562Z,13.304749
2022-08-23T04:57:11.748Z,13.284607
2022-08-23T05:00:36.934Z,13.294678
2022-08-23T05:04:02.090Z,13.32489
2022-08-23T05:07:30.913Z,13.44574
2022-08-23T05:10:52.469Z,13.687439
2022-08-23T05:14:17.630Z,13.919067
2022-08-23T05:17:42.815Z,14.019775
2022-08-23T05:21:07.984Z,13.999634
2022-08-23T05:24:33.763Z,13.989563
2022-08-23T05:27:59.026Z,14.120483
2022-08-23T05:31:24.107Z,14.291687
2022-08-23T05:34:49.282Z,14.513245
2022-08-23T05:38:17.756Z,14.684448
2022-08-23T05:41:39.663Z,14.825439
2022-08-23T05:45:06.110Z,14.936218
2022-08-23T05:48:30.013Z,15.016785
2022-08-23T05:51:55.200Z,15.127563
2022-08-23T05:55:21.875Z,15.228271
2022-08-23T05:58:45.588Z,15.33905
2022-08-23T06:02:10.769Z,15.4599
2022-08-23T06:05:35.989Z,15.621033
2022-08-23T06:09:01.185Z,15.751953
2022-08-23T06:12:26.351Z,15.862732
2022-08-23T06:15:51.519Z,16.054077
2022-08-23T06:19:16.702Z,16.245422
2022-08-23T06:22:41.864Z,16.416626
2022-08-23T06:26:07.105Z,16.557617
2022-08-23T06:29:32.310Z,16.698608
2022-08-23T06:32:57.482Z,16.779175
2022-08-23T06:36:22.632Z,16.809387
2022-08-23T06:39:47.849Z,16.829529
2022-08-23T06:43:12.946Z,16.829529
2022-08-23T06:46:38.201Z,16.819458
2022-08-23T06:50:03.355Z,16.789246
2022-08-23T06:53:28.554Z,16.748962
2022-08-23T06:56:53.782Z,16.789246
2022-08-23T07:00:22.033Z,16.748962
2022-08-23T07:03:44.164Z,16.748962
2022-08-23T07:07:11.528Z,16.748962
2022-08-23T07:10:35.542Z,16.728821
2022-08-23T07:14:00.722Z,16.668396
2022-08-23T07:17:25.911Z,16.678467
2022-08-23T07:20:51.161Z,16.658325
2022-08-23T07:24:16.361Z,16.668396
2022-08-23T07:27:41.528Z,16.678467
2022-08-23T07:31:06.767Z,16.708679
2022-08-23T07:34:31.988Z,16.779175
2022-08-23T07:37:57.217Z,16.829529
2022-08-23T07:41:22.361Z,16.829529
2022-08-23T07:44:47.571Z,16.940308
2022-08-23T07:48:14.286Z,17.030945
2022-08-23T07:51:37.970Z,17.111511
2022-08-23T07:55:03.174Z,17.212219
2022-08-23T07:58:28.360Z,17.302856
2022-08-23T08:01:53.617Z,17.34314
2022-08-23T08:05:21.696Z,17.463989
2022-08-23T08:08:43.923Z,17.544556
2022-08-23T08:12:09.135Z,17.625122
2022-08-23T08:15:34.373Z,17.776184
2022-08-23T08:18:59.572Z,17.897034
2022-08-23T08:22:24.782Z,17.957458
2022-08-23T08:25:49.976Z,18.118591
2022-08-23T08:29:15.186Z,18.179016
2022-08-23T08:32:46.902Z,18.269653
2022-08-23T08:36:05.601Z,18.289795
2022-08-23T08:39:30.774Z,18.259583
2022-08-23T08:42:56.028Z,18.289795
2022-08-23T08:46:21.217Z,18.320007
2022-08-23T08:49:46.366Z,18.209229
2022-08-23T08:53:11.543Z,18.138733
2022-08-23T08:56:36.745Z,18.027954
2022-08-23T09:00:01.985Z,18.027954
2022-08-23T09:03:27.231Z,18.09845
2022-08-23T09:06:52.396Z,18.179016
2022-08-23T09:10:17.576Z,18.168945
2022-08-23T09:13:45.961Z,18.249512
2022-08-23T09:17:07.994Z,18.259583
2022-08-23T09:20:34.810Z,18.299866
2022-08-23T09:24:00.702Z,18.320007
2022-08-23T09:27:23.603Z,18.330078
2022-08-23T09:30:48.839Z,18.320007
2022-08-23T09:34:14.025Z,18.330078
2022-08-23T09:37:39.245Z,18.360291
2022-08-23T09:41:04.418Z,18.410645
2022-08-23T09:44:29.643Z,18.450928
2022-08-23T09:47:54.896Z,18.571777
2022-08-23T09:51:20.094Z,18.672485
2022-08-23T09:54:47.467Z,18.73291
2022-08-23T09:58:10.519Z,18.783264
2022-08-23T10:01:39.040Z,18.763123
2022-08-23T10:05:01.047Z,18.904114
2022-08-23T10:08:26.188Z,18.944397
2022-08-23T10:11:51.410Z,18.98468
2022-08-23T10:15:16.641Z,19.186096
2022-08-23T10:18:41.872Z,19.367371
2022-08-23T10:22:07.104Z,19.558716
2022-08-23T10:25:32.334Z,19.760132
2022-08-23T10:28:57.570Z,19.840698
2022-08-23T10:32:22.820Z,19.941406
2022-08-23T10:35:48.078Z,19.981689
2022-08-23T10:39:13.308Z,19.961548
2022-08-23T10:42:38.540Z,19.961548
2022-08-23T10:46:03.772Z,19.961548
2022-08-23T10:49:28.998Z,20.11261
2022-08-23T10:52:54.279Z,20.203247
2022-08-23T10:56:19.522Z,20.183105
2022-08-23T10:59:44.813Z,20.132751
2022-08-23T11:03:10.814Z,20.102539
2022-08-23T11:06:37.151Z,20.203247
2022-08-23T11:10:02.427Z,20.263672
2022-08-23T11:13:27.666Z,20.414734
2022-08-23T11:16:52.912Z,20.585938
2022-08-23T11:20:18.198Z,20.636292
2022-08-23T11:23:43.437Z,20.787354
2022-08-23T11:27:13.395Z,20.726929
2022-08-23T11:30:39.603Z,20.737
2022-08-23T11:34:04.775Z,20.797424
2022-08-23T11:37:30.020Z,20.716858
2022-08-23T11:40:55.254Z,20.666504
2022-08-23T11:44:20.477Z,20.696716
2022-08-23T11:47:45.721Z,20.767212
2022-08-23T11:51:10.984Z,20.908203
2022-08-23T11:54:36.219Z,20.938416
2022-08-23T11:58:01.628Z,20.938416
2022-08-23T12:01:26.667Z,21.008911
2022-08-23T12:04:51.897Z,21.129761
2022-08-23T12:08:17.118Z,21.099548
2022-08-23T12:11:42.880Z,21.170044
2022-08-23T12:15:08.121Z,21.220398
2022-08-23T12:18:33.379Z,21.341248
2022-08-23T12:21:58.607Z,21.532593
2022-08-23T12:25:23.891Z,21.532593
2022-08-23T12:28:49.117Z,21.49231
2022-08-23T12:32:14.339Z,21.522522
2022-08-23T12:35:39.588Z,21.542664
2022-08-23T12:39:04.956Z,21.562805
2022-08-23T12:42:30.184Z,21.593018
2022-08-23T12:45:55.449Z,21.562805
2022-08-23T12:49:20.711Z,21.522522
2022-08-23T12:52:45.930Z,21.532593
2022-08-23T12:56:11.158Z,21.562805
2022-08-23T12:59:36.374Z,21.532593
2022-08-23T13:03:01.936Z,21.462097
2022-08-23T13:06:26.856Z,21.472168
2022-08-23T13:09:53.371Z,21.532593
2022-08-23T13:13:17.918Z,21.62323
2022-08-23T13:16:43.145Z,21.683655
2022-08-23T13:20:08.392Z,21.794434
2022-08-23T13:23:33.615Z,21.794434
2022-08-23T13:26:58.843Z,21.794434
2022-08-23T13:30:24.088Z,21.774292
2022-08-23T13:33:49.313Z,21.864929
2022-08-23T13:37:14.520Z,21.864929
2022-08-23T13:40:39.758Z,21.834717
2022-08-23T13:44:05.001Z,21.723938
2022-08-23T13:47:30.239Z,21.713867
2022-08-23T13:50:55.473Z,21.613159
2022-08-23T13:54:20.714Z,21.49231
2022-08-23T13:57:45.939Z,21.462097
2022-08-23T14:01:11.211Z,21.49231
2022-08-23T14:04:36.409Z,21.542664
2022-08-23T14:08:01.619Z,21.643372
2022-08-23T14:11:26.900Z,21.693726
2022-08-23T14:14:52.132Z,21.62323
2022-08-23T14:18:17.348Z,21.522522
2022-08-23T14:21:42.586Z,21.441956
2022-08-23T14:25:07.836Z,21.431885
2022-08-23T14:28:33.059Z,21.49231
2022-08-23T15:05:30.163Z,21.069336
2022-08-23T15:08:55.549Z,21.008911
2022-08-23T15:15:46.002Z,21.029053
2022-08-23T15:19:11.249Z,21.089478
2022-08-23T15:22:40.032Z,21.029053
2022-08-23T15:26:01.685Z,21.039124
2022-08-23T15:29:26.923Z,21.089478
2022-08-23T15:32:56.621Z,21.11969
2022-08-23T15:36:17.386Z,21.129761
2022-08-23T15:39:42.693Z,21.139832
2022-08-23T15:43:07.870Z,21.059265
2022-08-23T15:46:33.168Z,21.008911
2022-08-23T15:49:58.347Z,21.008911
2022-08-23T15:53:23.596Z,20.98877
2022-08-23T15:56:50.635Z,20.978699
2022-08-23T16:00:15.939Z,20.98877
2022-08-23T16:03:41.284Z,20.98877
2022-08-23T16:07:06.525Z,20.978699
2022-08-23T16:10:31.877Z,20.948486
2022-08-23T16:13:57.155Z,20.948486
2022-08-23T16:17:22.420Z,20.938416
2022-08-23T16:20:47.640Z,20.918274
2022-08-23T16:24:12.878Z,20.877991
2022-08-23T16:27:38.119Z,20.847778
2022-08-23T16:31:03.396Z,20.817566
2022-08-23T16:34:28.542Z,20.817566
2022-08-23T16:37:53.783Z,20.86792
2022-08-23T16:41:19.026Z,20.837708
2022-08-23T16:44:44.244Z,20.726929
2022-08-23T16:48:12.995Z,20.696716
2022-08-23T16:51:34.686Z,20.636292
2022-08-23T16:54:59.933Z,20.575867
2022-08-23T16:58:25.177Z,20.565796
2022-08-23T17:01:50.578Z,20.535583
2022-08-23T17:05:15.611Z,20.505371
2022-08-23T17:08:40.836Z,20.465088
2022-08-23T17:12:06.055Z,20.36438
2022-08-23T17:15:31.285Z,20.314026
2022-08-23T17:18:56.508Z,20.293884
2022-08-23T17:22:21.749Z,20.24353
2022-08-23T17:25:46.985Z,20.173035
2022-08-23T17:29:12.281Z,20.11261
2022-08-23T17:32:37.568Z,19.99176
2022-08-23T17:36:02.996Z,19.961548
2022-08-23T17:39:44.062Z,19.880981
2022-08-23T17:43:20.810Z,19.880981
2022-08-23T17:46:46.092Z,19.840698
2022-08-23T17:50:11.402Z,19.840698
2022-08-23T17:53:36.788Z,19.810486
2022-08-23T17:57:02.063Z,19.770203
2022-08-23T18:00:27.382Z,19.73999
2022-08-23T18:03:52.687Z,19.709778
2022-08-23T18:07:17.965Z,19.649353
2022-08-23T18:10:43.230Z,19.478149
2022-08-23T18:14:08.464Z,19.327087
2022-08-23T18:17:33.738Z,19.206238
2022-08-23T18:20:58.974Z,18.914185
2022-08-23T18:24:24.300Z,18.692627
2022-08-23T18:27:49.592Z,18.511353
2022-08-23T18:31:21.169Z,18.299866
2022-08-23T18:34:46.398Z,17.987671
2022-08-23T18:38:11.637Z,17.766113
2022-08-23T18:41:36.889Z,17.625122
2022-08-23T18:45:02.150Z,17.524414
2022-08-23T18:48:27.377Z,17.403564
2022-08-23T18:51:52.638Z,17.232361
2022-08-23T18:55:17.871Z,17.071228
2022-08-23T18:58:43.107Z,16.980591
2022-08-23T19:02:08.486Z,16.960449
2022-08-23T19:05:38.666Z,17.030945
2022-08-23T19:08:58.894Z,17.041016
2022-08-23T19:12:24.145Z,17.151794
2022-08-23T19:15:49.411Z,17.111511
2022-08-23T19:19:14.694Z,17.061157
2022-08-23T19:22:39.951Z,16.980591
2022-08-23T19:26:09.248Z,16.779175
2022-08-23T19:29:30.479Z,16.698608
2022-08-23T19:32:55.949Z,16.668396
2022-08-23T19:36:42.979Z,16.678467
2022-08-23T19:39:46.308Z,16.698608
2022-08-23T19:43:11.494Z,16.658325
2022-08-23T19:46:36.705Z,16.658325
2022-08-23T19:50:01.985Z,16.577759
2022-08-23T19:53:27.253Z,16.557617
2022-08-23T19:56:52.496Z,16.527405
2022-08-23T20:00:19.747Z,16.557617
2022-08-23T20:03:43.089Z,16.517334
2022-08-23T20:07:08.337Z,16.456909
2022-08-23T20:10:33.647Z,16.386414
2022-08-23T20:13:58.877Z,16.33606
2022-08-23T20:17:24.142Z,16.245422
2022-08-23T20:20:49.393Z,16.245422
2022-08-23T20:24:14.629Z,16.195068
2022-08-23T20:27:39.883Z,16.205139
2022-08-23T20:31:05.166Z,16.144714
2022-08-23T20:34:30.374Z,16.114502
2022-08-23T20:37:55.639Z,16.003723
2022-08-23T20:41:20.889Z,15.84259
2022-08-23T20:44:46.157Z,15.762024
2022-08-23T20:48:11.401Z,15.671387
2022-08-23T20:51:37.052Z,15.691528
2022-08-23T20:55:01.936Z,15.822449
2022-08-23T20:58:27.183Z,15.84259
2022-08-23T21:01:52.638Z,15.862732
2022-08-23T21:05:17.681Z,15.892944
2022-08-23T21:08:43.346Z,15.84259
2022-08-23T21:12:08.167Z,15.651245
2022-08-23T21:15:33.388Z,15.540466
2022-08-23T21:18:58.628Z,15.389404
2022-08-23T21:22:23.882Z,15.359192
2022-08-23T21:25:49.118Z,15.429688
2022-08-23T21:29:14.360Z,15.490112
2022-08-23T21:32:39.651Z,15.500183
2022-08-23T21:36:04.910Z,15.500183
2022-08-23T21:39:30.146Z,15.500183
2022-08-23T21:42:55.408Z,15.540466
2022-08-23T21:46:20.742Z,15.540466
2022-08-23T21:49:45.911Z,15.59082
2022-08-23T21:53:11.176Z,15.641174
2022-08-23T21:56:36.406Z,15.621033
2022-08-23T22:00:01.639Z,15.600891
2022-08-23T22:03:26.878Z,15.560608
2022-08-23T22:06:52.098Z,15.540466
2022-08-23T22:10:17.332Z,15.4599
2022-08-23T22:13:42.547Z,15.349121
2022-08-23T22:17:07.796Z,15.288696
2022-08-23T22:20:33.069Z,15.268555
2022-08-23T22:23:58.289Z,15.157776
2022-08-23T22:27:23.536Z,15.107422
2022-08-23T22:30:48.784Z,15.097351
2022-08-23T22:34:13.985Z,15.107422
2022-08-23T22:37:46.016Z,15.127563
2022-08-23T22:41:04.460Z,15.107422
2022-08-23T22:44:29.690Z,15.137634
2022-08-23T22:47:54.935Z,15.067139
2022-08-23T22:51:20.173Z,14.95636
2022-08-23T22:54:45.434Z,14.885864
2022-08-23T22:58:10.666Z,14.906006
2022-08-23T23:01:35.973Z,14.916077
2022-08-23T23:05:01.142Z,14.916077
2022-08-23T23:08:26.386Z,14.885864
2022-08-23T23:11:51.637Z,14.855652
2022-08-23T23:15:16.882Z,14.855652
2022-08-23T23:18:42.119Z,14.855652
2022-08-23T23:22:07.366Z,14.855652
2022-08-23T23:25:32.600Z,14.885864
2022-08-23T23:28:57.842Z,14.885864
2022-08-23T23:32:23.073Z,14.855652
2022-08-23T23:35:48.287Z,14.83551
2022-08-23T23:39:13.511Z,14.805298
2022-08-23T23:42:38.745Z,14.805298
2022-08-23T23:46:04.096Z,14.805298
2022-08-23T23:49:32.147Z,14.795227
2022-08-23T23:52:54.471Z,14.795227
2022-08-23T23:56:19.701Z,14.805298
2022-08-23T23:59:44.928Z,14.775085
